createdAt,value
2023-04-07T00:01:36.766Z,98405.03
2023-04-07T00:06:52.682Z,98409.22
2023-04-07T00:09:22.649Z,98398.03
2023-04-07T00:12:05.359Z,98409.25
2023-04-07T00:14:36.892Z,98412.28
2023-04-07T00:17:07.650Z,98399.75
2023-04-07T00:19:39.606Z,98408.13
2023-04-07T00:22:17.004Z,98390.44
2023-04-07T00:24:55.595Z,98405.88
2023-04-07T00:27:28.515Z,98408.03
2023-04-07T00:30:07.283Z,98409.59
2023-04-07T00:32:45.530Z,98400.72
2023-04-07T00:37:55.980Z,98403.75
2023-04-07T00:40:25.571Z,98400.56
2023-04-07T00:42:56.639Z,98398.34
2023-04-07T00:45:26.805Z,98406.69
2023-04-07T00:47:59.507Z,98405.19
2023-04-07T00:50:36.967Z,98406.50
2023-04-07T00:53:11.472Z,98339.53
2023-04-07T00:56:04.334Z,98414.31
2023-04-07T00:58:35.564Z,98412.50
2023-04-07T01:01:18.062Z,98411.97
2023-04-07T01:04:14.409Z,98401.25
2023-04-07T01:07:08.270Z,98406.59
2023-04-07T01:09:49.419Z,98403.75
2023-04-07T01:12:52.108Z,98397.25
2023-04-07T01:15:34.990Z,98350.06
2023-04-07T01:18:37.185Z,98397.53
2023-04-07T01:21:13.460Z,98375.63
2023-04-07T01:24:01.894Z,98394.50
2023-04-07T01:26:32.082Z,98388.22
2023-04-07T01:32:42.033Z,98392.19
2023-04-07T01:35:19.673Z,98391.06
2023-04-07T01:37:52.686Z,98384.91
2023-04-07T01:40:29.802Z,98378.97
2023-04-07T01:43:06.899Z,98380.78
2023-04-07T01:45:40.889Z,98384.34
2023-04-07T01:48:13.377Z,98396.31
2023-04-07T01:50:43.959Z,98388.78
2023-04-07T01:55:59.616Z,98399.47
2023-04-07T01:58:45.801Z,98400.94
2023-04-07T02:01:21.464Z,98387.78
2023-04-07T02:04:08.599Z,98399.22
2023-04-07T02:06:57.792Z,98392.13
2023-04-07T02:09:45.467Z,98352.53
2023-04-07T02:12:17.719Z,98376.91
2023-04-07T02:15:02.859Z,98379.97
2023-04-07T02:17:40.858Z,98354.97
2023-04-07T02:20:16.442Z,98356.38
2023-04-07T02:22:48.356Z,98380.94
2023-04-07T02:25:45.555Z,98377.22
2023-04-07T02:28:19.123Z,98320.38
2023-04-07T02:30:53.125Z,98382.84
2023-04-07T02:33:32.556Z,98381.81
2023-04-07T02:36:03.002Z,98351.28
2023-04-07T02:38:36.282Z,98384.25
2023-04-07T02:41:16.337Z,98386.28
2023-04-07T02:43:47.291Z,98386.06
2023-04-07T02:46:38.333Z,98387.78
2023-04-07T02:49:12.800Z,98362.22
2023-04-07T02:51:44.070Z,98376.25
2023-04-07T02:54:14.929Z,98380.63
2023-04-07T02:56:52.925Z,98373.59
2023-04-07T02:59:23.341Z,98378.59
2023-04-07T03:01:55.528Z,98380.94
2023-04-07T03:04:26.511Z,98370.66
2023-04-07T03:06:58.259Z,98358.09
2023-04-07T03:09:31.060Z,98371.75
2023-04-07T03:12:02.815Z,98385.97
2023-04-07T03:14:44.784Z,98371.63
2023-04-07T03:17:17.235Z,98368.78
2023-04-07T03:19:52.815Z,98369.34
2023-04-07T03:22:23.974Z,98372.41
2023-04-07T03:24:57.217Z,98376.72
2023-04-07T03:27:30.797Z,98379.53
2023-04-07T03:30:01.339Z,98379.28
2023-04-07T03:32:33.635Z,98374.63
2023-04-07T03:35:04.399Z,98375.69
2023-04-07T03:37:40.859Z,98369.44
2023-04-07T03:40:20.820Z,98379.63
2023-04-07T03:42:51.653Z,98363.66
2023-04-07T03:45:23.246Z,98375.28
2023-04-07T03:50:55.809Z,98376.28
2023-04-07T03:53:27.435Z,98372.53
2023-04-07T03:56:03.785Z,98381.03
2023-04-07T03:58:57.253Z,98369.03
2023-04-07T04:01:38.608Z,98374.84
2023-04-07T04:04:17.278Z,98371.06
2023-04-07T04:06:51.615Z,98351.28
2023-04-07T04:09:32.304Z,98367.72
2023-04-07T04:12:03.491Z,98370.31
2023-04-07T04:14:39.082Z,98373.09
2023-04-07T04:17:13.046Z,98355.41
2023-04-07T04:19:53.755Z,98372.81
2023-04-07T04:22:28.671Z,98376.69
2023-04-07T04:25:04.239Z,98352.38
2023-04-07T04:27:40.150Z,98381.88
2023-04-07T04:30:27.916Z,98331.69
2023-04-07T04:33:07.286Z,98370.78
2023-04-07T04:35:56.984Z,98379.53
2023-04-07T04:38:29.870Z,98373.28
2023-04-07T04:41:11.004Z,98382.97
2023-04-07T04:43:47.450Z,98382.84
2023-04-07T04:46:28.584Z,98368.09
2023-04-07T04:49:00.174Z,98371.38
2023-04-07T04:51:33.742Z,98374.91
2023-04-07T04:54:14.968Z,98376.69
2023-04-07T04:56:51.192Z,98343.75
2023-04-07T04:59:30.030Z,98383.03
2023-04-07T05:02:16.920Z,98375.97
2023-04-07T05:04:46.550Z,98375.59
2023-04-07T05:07:30.994Z,98367.19
2023-04-07T05:10:02.417Z,98392.97
2023-04-07T05:12:38.270Z,98374.91
2023-04-07T05:15:13.806Z,98388.72
2023-04-07T05:17:44.381Z,98388.94
2023-04-07T05:20:21.482Z,98393.09
2023-04-07T05:22:55.305Z,98394.84
2023-04-07T05:25:31.928Z,98393.22
2023-04-07T05:28:06.992Z,98386.56
2023-04-07T05:30:44.621Z,98385.34
2023-04-07T05:33:29.168Z,98381.19
2023-04-07T05:36:03.521Z,98388.03
2023-04-07T05:38:49.622Z,98397.31
2023-04-07T05:41:24.628Z,98393.97
2023-04-07T05:43:54.663Z,98391.53
2023-04-07T05:46:26.247Z,98384.72
2023-04-07T05:49:07.198Z,98363.25
2023-04-07T05:51:49.400Z,98389.94
2023-04-07T05:54:22.981Z,98385.59
2023-04-07T05:56:56.800Z,98394.00
2023-04-07T05:59:28.724Z,98385.94
2023-04-07T06:01:58.739Z,98385.94
2023-04-07T06:04:30.806Z,98383.94
2023-04-07T06:07:01.898Z,98354.47
2023-04-07T06:09:31.082Z,98386.31
2023-04-07T06:12:05.551Z,98390.19
2023-04-07T06:14:37.704Z,98386.41
2023-04-07T06:17:11.906Z,98384.47
2023-04-07T06:19:48.636Z,98389.41
2023-04-07T06:22:17.366Z,98381.19
2023-04-07T06:24:48.306Z,98363.63
2023-04-07T06:27:24.632Z,98367.59
2023-04-07T06:30:01.076Z,98380.16
2023-04-07T06:32:32.003Z,98361.31
2023-04-07T06:35:03.240Z,98373.19
2023-04-07T06:37:34.495Z,98362.09
2023-04-07T06:40:10.394Z,98372.44
2023-04-07T06:42:47.938Z,98366.72
2023-04-07T06:45:27.801Z,98361.47
2023-04-07T06:48:01.358Z,98359.25
2023-04-07T06:50:35.809Z,98356.59
2023-04-07T06:53:06.854Z,98343.50
2023-04-07T06:55:43.920Z,98349.25
2023-04-07T06:58:14.633Z,98361.41
2023-04-07T07:00:51.676Z,98358.38
2023-04-07T07:03:22.321Z,98351.59
2023-04-07T07:05:50.569Z,98352.00
2023-04-07T07:08:23.707Z,98357.53
2023-04-07T07:10:55.160Z,98353.91
2023-04-07T07:13:41.055Z,98348.78
2023-04-07T07:16:17.708Z,98344.44
2023-04-07T07:18:49.433Z,98331.59
2023-04-07T07:21:24.487Z,98351.34
2023-04-07T07:23:54.960Z,98354.91
2023-04-07T07:26:28.462Z,98339.53
2023-04-07T07:28:59.957Z,98279.28
2023-04-07T07:31:28.319Z,98335.13
2023-04-07T07:36:45.266Z,98343.22
2023-04-07T07:39:19.317Z,98349.56
2023-04-07T07:41:50.067Z,98343.31
2023-04-07T07:44:35.453Z,98344.59
2023-04-07T07:47:09.769Z,98341.25
2023-04-07T07:49:40.330Z,98328.72
2023-04-07T07:52:17.719Z,98313.56
2023-04-07T07:54:55.327Z,98316.53
2023-04-07T07:57:25.599Z,98322.25
2023-04-07T08:00:10.038Z,98309.91
2023-04-07T08:02:50.633Z,98320.69
2023-04-07T08:05:23.291Z,98310.25
2023-04-07T08:07:58.699Z,98264.56
2023-04-07T08:10:31.046Z,98285.91
2023-04-07T08:13:05.806Z,98311.13
2023-04-07T08:15:47.516Z,98305.69
2023-04-07T08:18:16.386Z,98305.78
2023-04-07T08:20:54.376Z,98295.50
2023-04-07T08:23:27.480Z,98271.94
2023-04-07T08:25:56.530Z,98297.69
2023-04-07T08:28:27.362Z,98293.09
2023-04-07T08:31:04.011Z,98294.31
2023-04-07T08:33:37.912Z,98302.22
2023-04-07T08:36:11.508Z,98286.47
2023-04-07T08:38:44.468Z,98279.34
2023-04-07T08:41:17.420Z,98291.25
2023-04-07T08:43:57.984Z,98285.16
2023-04-07T08:46:27.525Z,98282.75
2023-04-07T08:48:58.442Z,98282.97
2023-04-07T08:51:37.052Z,98278.56
2023-04-07T08:54:24.795Z,98280.00
2023-04-07T08:56:57.778Z,98278.06
2023-04-07T08:59:29.751Z,98279.22
2023-04-07T09:02:00.881Z,98251.31
2023-04-07T09:07:16.256Z,98269.47
2023-04-07T09:09:47.873Z,98266.16
2023-04-07T09:12:15.948Z,98261.00
2023-04-07T09:14:45.801Z,98260.97
2023-04-07T09:17:16.782Z,98254.31
2023-04-07T09:19:46.828Z,98252.06
2023-04-07T09:22:21.260Z,98253.44
2023-04-07T09:24:59.060Z,98242.81
2023-04-07T09:27:39.099Z,98236.03
2023-04-07T09:30:27.142Z,98230.19
2023-04-07T09:33:02.308Z,98230.81
2023-04-07T09:35:30.943Z,98219.06
2023-04-07T09:38:21.243Z,98224.03
2023-04-07T09:40:56.575Z,98218.84
2023-04-07T09:43:27.354Z,98214.28
2023-04-07T09:46:22.504Z,98207.09
2023-04-07T09:49:13.478Z,98208.53
2023-04-07T09:52:02.650Z,98206.91
2023-04-07T09:54:47.201Z,98196.59
2023-04-07T09:57:18.689Z,98191.09
2023-04-07T09:59:51.886Z,98180.13
2023-04-07T10:02:33.776Z,98180.16
2023-04-07T10:05:11.272Z,98174.50
2023-04-07T10:07:46.957Z,98173.75
2023-04-07T10:10:19.820Z,98164.19
2023-04-07T10:13:03.135Z,98166.56
2023-04-07T10:15:39.593Z,98166.63
2023-04-07T10:18:18.546Z,98149.47
2023-04-07T10:20:57.272Z,98150.47
2023-04-07T10:23:38.958Z,98149.16
2023-04-07T10:26:11.854Z,98143.34
2023-04-07T10:28:52.272Z,98094.13
2023-04-07T10:31:22.816Z,98127.59
2023-04-07T10:33:56.879Z,98143.16
2023-04-07T10:36:37.438Z,98130.88
2023-04-07T10:39:28.010Z,98138.28
2023-04-07T10:41:59.424Z,98129.59
2023-04-07T10:44:43.003Z,98127.94
2023-04-07T10:47:19.720Z,98127.09
2023-04-07T10:50:26.709Z,98122.97
2023-04-07T10:53:18.608Z,98118.50
2023-04-07T10:55:49.808Z,98100.19
2023-04-07T10:58:33.193Z,98116.47
2023-04-07T11:01:18.207Z,98102.69
2023-04-07T11:04:02.055Z,98108.50
2023-04-07T11:06:35.123Z,98094.22
2023-04-07T11:09:05.470Z,98083.44
2023-04-07T11:14:37.047Z,98104.75
2023-04-07T11:17:16.622Z,98100.63
2023-04-07T11:20:00.817Z,98095.22
2023-04-07T11:22:34.906Z,98094.22
2023-04-07T11:25:19.594Z,98082.66
2023-04-07T11:27:48.268Z,98081.34
2023-04-07T11:30:21.532Z,98090.09
2023-04-07T11:32:55.251Z,98079.06
2023-04-07T11:35:36.919Z,98083.03
2023-04-07T11:38:13.005Z,98076.53
2023-04-07T11:40:41.689Z,98073.94
2023-04-07T11:43:34.214Z,98073.94
2023-04-07T11:46:32.054Z,98072.84
2023-04-07T11:52:14.176Z,98066.25
2023-04-07T11:54:51.850Z,98056.47
2023-04-07T11:57:33.470Z,98065.97
2023-04-07T12:00:18.410Z,98046.66
2023-04-07T12:02:50.316Z,98043.75
2023-04-07T12:05:22.146Z,98038.88
2023-04-07T12:07:59.182Z,98035.97
2023-04-07T12:10:45.570Z,98028.13
2023-04-07T12:13:17.989Z,98022.41
2023-04-07T12:15:54.251Z,98019.94
2023-04-07T12:18:27.297Z,98022.66
2023-04-07T12:21:02.771Z,98017.09
2023-04-07T12:23:47.071Z,98014.72
2023-04-07T12:26:22.951Z,97999.59
2023-04-07T12:28:55.227Z,97989.03
2023-04-07T12:34:08.699Z,98009.75
2023-04-07T12:36:42.404Z,97996.56
2023-04-07T12:39:12.796Z,98016.00
2023-04-07T12:41:43.127Z,97990.75
2023-04-07T12:44:11.420Z,97985.88
2023-04-07T12:46:45.740Z,97983.09
2023-04-07T12:49:14.608Z,97980.50
2023-04-07T12:51:45.224Z,97990.75
2023-04-07T12:54:16.432Z,97981.44
2023-04-07T12:56:57.803Z,97998.66
2023-04-07T12:59:32.714Z,97993.06
2023-04-07T13:02:05.611Z,97986.97
2023-04-07T13:04:42.463Z,97982.31
2023-04-07T13:07:15.719Z,97985.44
2023-04-07T13:09:50.572Z,97962.31
2023-04-07T13:12:21.339Z,97967.03
2023-04-07T13:15:00.673Z,97949.63
2023-04-07T13:17:32.853Z,97969.50
2023-04-07T13:20:04.123Z,97976.09
2023-04-07T13:22:35.824Z,97968.91
2023-04-07T13:25:11.325Z,97938.22
2023-04-07T13:27:44.649Z,97960.03
2023-04-07T13:30:15.187Z,97956.38
2023-04-07T13:32:49.246Z,97955.47
2023-04-07T13:35:23.534Z,97956.09
2023-04-07T13:38:00.811Z,97957.56
2023-04-07T13:40:34.151Z,97952.72
2023-04-07T13:43:04.889Z,97909.25
2023-04-07T13:45:47.242Z,97943.50
2023-04-07T13:48:25.561Z,97948.63
2023-04-07T13:50:59.573Z,97941.00
2023-04-07T13:53:28.117Z,97929.06
2023-04-07T13:58:47.865Z,97922.47
2023-04-07T14:01:23.864Z,97937.41
2023-04-07T14:03:55.221Z,97923.50
2023-04-07T14:09:09.839Z,97927.34
2023-04-07T14:11:41.367Z,97928.66
2023-04-07T14:14:15.622Z,97928.91
2023-04-07T14:16:47.441Z,97924.75
2023-04-07T14:19:18.298Z,97921.72
2023-04-07T14:21:51.161Z,97915.63
2023-04-07T14:24:21.899Z,97922.50
2023-04-07T14:26:56.900Z,97919.94
2023-04-07T14:29:27.651Z,97904.50
2023-04-07T14:32:00.167Z,97912.47
2023-04-07T14:34:31.745Z,97911.47
2023-04-07T14:40:01.525Z,97916.41
2023-04-07T14:42:39.142Z,97919.09
2023-04-07T14:45:11.027Z,97921.69
2023-04-07T14:47:44.688Z,97916.19
2023-04-07T14:50:18.904Z,97919.44
2023-04-07T14:52:49.821Z,97922.72
2023-04-07T14:55:26.556Z,97927.53
2023-04-07T14:58:00.265Z,97919.84
2023-04-07T15:00:33.063Z,97908.91
2023-04-07T15:03:04.300Z,97922.09
2023-04-07T15:08:33.334Z,97938.75
2023-04-07T15:11:14.048Z,97923.84
2023-04-07T15:13:43.007Z,97925.22
2023-04-07T15:16:15.165Z,97893.78
2023-04-07T15:18:51.707Z,97932.34
2023-04-07T15:21:27.850Z,97917.38
2023-04-07T15:24:02.836Z,97931.19
2023-04-07T15:26:36.586Z,97926.94
2023-04-07T15:29:06.953Z,97922.78
2023-04-07T15:31:40.536Z,97927.19
2023-04-07T15:34:15.055Z,97939.59
2023-04-07T15:36:51.802Z,97906.50
2023-04-07T15:39:35.456Z,97927.97
2023-04-07T15:42:10.448Z,97939.78
2023-04-07T15:44:41.134Z,97935.69
2023-04-07T15:47:14.251Z,97933.78
2023-04-07T15:52:38.768Z,97940.47
2023-04-07T15:55:14.118Z,97947.66
2023-04-07T15:57:47.497Z,97947.00
2023-04-07T16:00:21.892Z,97961.00
2023-04-07T16:02:52.396Z,97957.50
2023-04-07T16:05:26.590Z,97952.28
2023-04-07T16:07:57.137Z,97950.25
2023-04-07T16:10:33.001Z,97953.88
2023-04-07T16:13:05.298Z,97957.28
2023-04-07T16:15:41.614Z,97967.28
2023-04-07T16:18:14.768Z,97969.16
2023-04-07T16:20:53.563Z,97951.22
2023-04-07T16:23:24.992Z,97978.03
2023-04-07T16:25:56.537Z,97989.44
2023-04-07T16:28:26.467Z,97963.97
2023-04-07T16:30:56.865Z,97983.69
2023-04-07T16:33:28.383Z,97974.31
2023-04-07T16:36:04.484Z,97988.94
2023-04-07T16:38:34.985Z,97985.75
2023-04-07T16:41:13.709Z,97990.41
2023-04-07T16:43:47.818Z,97990.31
2023-04-07T16:46:17.238Z,98002.16
2023-04-07T16:48:52.286Z,98003.44
2023-04-07T16:51:21.792Z,98001.97
2023-04-07T16:53:53.497Z,98009.06
2023-04-07T16:56:26.847Z,98010.22
2023-04-07T16:59:02.574Z,97995.50
2023-04-07T17:01:39.060Z,98008.66
2023-04-07T17:04:12.602Z,98017.81
2023-04-07T17:06:50.289Z,98025.53
2023-04-07T17:09:20.601Z,97973.09
2023-04-07T17:11:53.222Z,98028.31
2023-04-07T17:14:24.967Z,98027.25
2023-04-07T17:16:56.328Z,98030.13
2023-04-07T17:19:24.434Z,98032.72
2023-04-07T17:22:22.973Z,98027.94
2023-04-07T17:24:54.319Z,98044.50
2023-04-07T17:27:24.842Z,98033.03
2023-04-07T17:29:55.116Z,98052.56
2023-04-07T17:35:11.497Z,98061.50
2023-04-07T17:37:50.552Z,98070.28
2023-04-07T17:40:19.778Z,98081.25
2023-04-07T17:42:50.309Z,98081.31
2023-04-07T17:45:21.599Z,98080.50
2023-04-07T17:47:52.885Z,98071.59
2023-04-07T17:50:22.052Z,98082.16
2023-04-07T17:52:59.141Z,98090.28
2023-04-07T17:55:33.585Z,98098.78
2023-04-07T17:58:06.836Z,98105.81
2023-04-07T18:00:37.861Z,98108.59
2023-04-07T18:03:11.465Z,98111.03
2023-04-07T18:05:51.577Z,98121.59
2023-04-07T18:08:26.499Z,98123.28
2023-04-07T18:11:01.196Z,98138.25
2023-04-07T18:13:30.533Z,98140.47
2023-04-07T18:16:05.808Z,98130.91
2023-04-07T18:18:36.415Z,98148.38
2023-04-07T18:21:09.953Z,98144.19
2023-04-07T18:26:27.702Z,98153.75
2023-04-07T18:29:00.528Z,98157.03
2023-04-07T18:31:31.080Z,98160.44
2023-04-07T18:34:10.494Z,98156.13
2023-04-07T18:36:44.220Z,98160.78
2023-04-07T18:39:14.979Z,98177.56
2023-04-07T18:42:00.424Z,98174.31
2023-04-07T18:44:37.874Z,98180.16
2023-04-07T18:47:11.070Z,98174.09
2023-04-07T18:49:43.856Z,98176.50
2023-04-07T18:52:17.287Z,98162.00
2023-04-07T18:54:46.842Z,98184.69
2023-04-07T18:57:17.011Z,98179.84
2023-04-07T18:59:47.167Z,98192.88
2023-04-07T19:02:18.119Z,98187.38
2023-04-07T19:04:48.047Z,98193.88
2023-04-07T19:07:21.010Z,98193.47
2023-04-07T19:10:03.742Z,98195.66
2023-04-07T19:12:34.552Z,98202.59
2023-04-07T19:15:05.651Z,98205.06
2023-04-07T19:17:36.506Z,98220.25
2023-04-07T19:20:07.567Z,98210.44
2023-04-07T19:22:41.257Z,98211.31
2023-04-07T19:25:18.188Z,98222.00
2023-04-07T19:27:49.730Z,98222.56
2023-04-07T19:30:21.493Z,98214.13
2023-04-07T19:32:55.173Z,98222.91
2023-04-07T19:35:36.922Z,98236.34
2023-04-07T19:38:12.031Z,98231.88
2023-04-07T19:40:49.573Z,98233.81
2023-04-07T19:43:20.011Z,98237.50
2023-04-07T19:45:54.150Z,98237.75
2023-04-07T19:48:24.848Z,98228.00
2023-04-07T19:50:56.336Z,98235.00
2023-04-07T19:53:26.672Z,98249.38
2023-04-07T19:55:59.892Z,98236.34
2023-04-07T19:58:32.230Z,98245.56
2023-04-07T20:01:07.391Z,98246.28
2023-04-07T20:03:42.616Z,98258.06
2023-04-07T20:06:17.621Z,98255.97
2023-04-07T20:08:48.421Z,98255.66
2023-04-07T20:11:20.726Z,98239.00
2023-04-07T20:13:58.196Z,98236.03
2023-04-07T20:16:32.263Z,98254.94
2023-04-07T20:19:18.091Z,98237.44
2023-04-07T20:22:07.368Z,98226.22
2023-04-07T20:24:44.249Z,98257.34
2023-04-07T20:27:18.025Z,98260.03
2023-04-07T20:29:55.469Z,98188.81
2023-04-07T20:35:15.781Z,98267.84
2023-04-07T20:37:49.665Z,98267.47
2023-04-07T20:40:20.359Z,98263.59
2023-04-07T20:42:59.348Z,98271.56
2023-04-07T20:45:33.519Z,98222.72
2023-04-07T20:48:03.180Z,98270.88
2023-04-07T20:50:47.702Z,98225.16
2023-04-07T20:53:17.620Z,98273.94
2023-04-07T20:55:53.916Z,98269.41
2023-04-07T20:58:29.429Z,98281.78
2023-04-07T21:01:12.167Z,98273.13
2023-04-07T21:03:58.889Z,98277.69
2023-04-07T21:06:42.234Z,98282.16
2023-04-07T21:09:15.832Z,98271.13
2023-04-07T21:11:57.201Z,98249.06
2023-04-07T21:14:28.604Z,98289.38
2023-04-07T21:16:59.360Z,98291.44
2023-04-07T21:25:00.704Z,98285.41
2023-04-07T21:27:40.847Z,98294.03
2023-04-07T21:30:14.007Z,98238.06
2023-04-07T21:32:44.358Z,98288.25
2023-04-07T21:35:16.949Z,98258.53
2023-04-07T21:37:48.092Z,98297.88
2023-04-07T21:40:19.562Z,98290.94
2023-04-07T21:42:49.955Z,98305.88
2023-04-07T21:45:25.316Z,98300.66
2023-04-07T21:48:07.270Z,98291.72
2023-04-07T21:50:40.684Z,98304.72
2023-04-07T21:53:12.742Z,98308.53
2023-04-07T21:55:42.836Z,98306.88
2023-04-07T22:01:06.937Z,98316.25
2023-04-07T22:06:19.769Z,98315.59
2023-04-07T22:09:00.506Z,98321.31
2023-04-07T22:11:36.383Z,98326.22
2023-04-07T22:14:06.866Z,98323.81
2023-04-07T22:16:39.511Z,98327.81
2023-04-07T22:19:10.503Z,98338.31
2023-04-07T22:21:39.409Z,98341.59
2023-04-07T22:24:09.896Z,98343.53
2023-04-07T22:26:39.771Z,98340.84
2023-04-07T22:31:56.580Z,98329.56
2023-04-07T22:37:18.562Z,98345.88
2023-04-07T22:39:56.328Z,98350.34
2023-04-07T22:42:29.930Z,98349.25
2023-04-07T22:45:13.150Z,98349.50
2023-04-07T22:47:44.377Z,98347.31
2023-04-07T22:50:18.189Z,98351.66
2023-04-07T22:52:56.148Z,98347.13
2023-04-07T22:55:24.999Z,98352.47
2023-04-07T22:58:00.688Z,98347.47
2023-04-07T23:00:30.303Z,98347.59
2023-04-07T23:02:59.914Z,98345.06
2023-04-07T23:05:37.437Z,98358.22
2023-04-07T23:08:11.498Z,98352.38
2023-04-07T23:10:39.266Z,98355.03
2023-04-07T23:13:08.240Z,98362.56
2023-04-07T23:15:53.966Z,98360.47
2023-04-07T23:18:28.714Z,98374.59
2023-04-07T23:21:14.682Z,98371.34
2023-04-07T23:23:48.621Z,98377.00
2023-04-07T23:26:23.759Z,98365.53
2023-04-07T23:28:58.440Z,98375.91
2023-04-07T23:31:42.853Z,98366.19
2023-04-07T23:34:25.402Z,98367.00
2023-04-07T23:37:09.270Z,98365.88
2023-04-07T23:39:42.888Z,98370.56
2023-04-07T23:42:13.837Z,98370.03
2023-04-07T23:44:47.839Z,98356.72
2023-04-07T23:47:33.589Z,98370.81
2023-04-07T23:50:06.466Z,98379.25
2023-04-07T23:52:45.029Z,98370.41
2023-04-07T23:55:17.014Z,98348.00
2023-04-07T23:57:46.849Z,98371.91
